createdAt,value
2018-07-11T00:01:59.655Z,12.90
2018-07-11T00:04:27.191Z,13.00
2018-07-11T00:06:54.730Z,12.90
2018-07-11T00:09:22.256Z,12.90
2018-07-11T00:11:49.775Z,12.90
2018-07-11T00:14:17.316Z,12.80
2018-07-11T00:16:50.732Z,12.80
2018-07-11T00:19:18.269Z,12.70
2018-07-11T00:21:45.807Z,12.60
2018-07-11T00:24:13.345Z,12.60
2018-07-11T00:26:40.887Z,12.50
2018-07-11T00:29:08.410Z,12.40
2018-07-11T00:31:35.963Z,12.40
2018-07-11T00:34:03.495Z,12.30
2018-07-11T00:36:31.048Z,12.30
2018-07-11T00:38:58.584Z,12.20
2018-07-11T00:41:26.141Z,12.20
2018-07-11T00:43:53.670Z,12.10
2018-07-11T00:46:21.199Z,12.10
2018-07-11T00:48:48.777Z,12.10
2018-07-11T00:51:16.316Z,12.10
2018-07-11T00:53:43.864Z,12.10
2018-07-11T00:56:11.415Z,12.00
2018-07-11T00:58:50.582Z,12.00
2018-07-11T01:01:19.441Z,11.90
2018-07-11T01:03:54.051Z,11.90
2018-07-11T01:06:21.602Z,11.80
2018-07-11T01:08:55.187Z,11.70
2018-07-11T01:11:22.802Z,11.60
2018-07-11T01:13:50.418Z,11.60
2018-07-11T01:16:18.935Z,11.50
2018-07-11T01:19:02.808Z,11.50
2018-07-11T01:21:31.191Z,11.60
2018-07-11T01:23:58.767Z,11.70
2018-07-11T01:26:28.457Z,11.80
2018-07-11T01:28:56.070Z,11.80
2018-07-11T01:31:24.221Z,11.90
2018-07-11T01:33:51.823Z,12.00
2018-07-11T01:36:19.354Z,12.10
2018-07-11T01:38:47.047Z,12.20
2018-07-11T01:41:14.755Z,12.20
2018-07-11T01:46:10.353Z,12.40
2018-07-11T01:52:06.785Z,12.40
2018-07-11T01:54:34.401Z,12.50
2018-07-11T01:57:02.207Z,12.60
2018-07-11T01:59:35.239Z,12.60
2018-07-11T02:02:03.186Z,12.60
2018-07-11T02:04:32.009Z,12.70
2018-07-11T02:06:59.861Z,12.70
2018-07-11T02:09:27.455Z,12.70
2018-07-11T02:11:55.013Z,12.70
2018-07-11T02:14:22.781Z,12.80
2018-07-11T02:16:50.361Z,12.80
2018-07-11T02:19:19.621Z,12.80
2018-07-11T02:21:48.015Z,12.80
2018-07-11T02:24:15.667Z,12.80
2018-07-11T02:26:43.229Z,12.80
2018-07-11T02:29:11.050Z,12.80
2018-07-11T02:31:38.621Z,12.80
2018-07-11T02:34:06.205Z,12.70
2018-07-11T02:36:33.776Z,12.70
2018-07-11T02:39:01.638Z,12.70
2018-07-11T02:41:29.196Z,12.70
2018-07-11T02:43:56.793Z,12.80
2018-07-11T02:46:30.117Z,12.80
2018-07-11T02:48:57.704Z,12.90
2018-07-11T02:51:25.265Z,12.90
2018-07-11T02:53:52.845Z,12.90
2018-07-11T02:56:20.404Z,12.90
2018-07-11T02:58:48.023Z,13.00
2018-07-11T03:01:15.991Z,13.00
2018-07-11T03:03:43.915Z,13.10
2018-07-11T03:06:11.845Z,13.10
2018-07-11T03:08:39.742Z,13.20
2018-07-11T03:11:07.644Z,13.30
2018-07-11T03:13:35.563Z,13.30
2018-07-11T03:16:03.407Z,13.30
2018-07-11T03:18:31.490Z,13.40
2018-07-11T03:20:59.343Z,13.40
2018-07-11T03:23:27.199Z,13.40
2018-07-11T03:25:55.167Z,13.40
2018-07-11T03:28:23.006Z,13.50
2018-07-11T03:30:50.803Z,13.60
2018-07-11T03:33:18.633Z,13.70
2018-07-11T03:35:46.570Z,13.70
2018-07-11T03:38:14.454Z,13.80
2018-07-11T03:40:42.369Z,13.80
2018-07-11T03:43:10.261Z,13.70
2018-07-11T03:45:38.128Z,13.70
2018-07-11T03:48:05.992Z,13.70
2018-07-11T03:50:33.894Z,13.70
2018-07-11T03:53:01.769Z,13.70
2018-07-11T03:55:29.707Z,13.70
2018-07-11T03:57:57.589Z,13.70
2018-07-11T04:00:25.785Z,13.80
2018-07-11T04:02:55.094Z,13.80
2018-07-11T04:05:23.202Z,13.80
2018-07-11T04:07:51.187Z,13.90
2018-07-11T04:10:19.068Z,13.90
2018-07-11T04:12:49.962Z,14.00
2018-07-11T04:15:17.839Z,14.00
2018-07-11T04:17:45.617Z,14.10
2018-07-11T04:20:13.536Z,14.10
2018-07-11T04:22:41.362Z,14.20
2018-07-11T04:25:09.253Z,14.20
2018-07-11T04:27:37.143Z,14.30
2018-07-11T04:30:05.087Z,14.30
2018-07-11T04:32:32.910Z,14.50
2018-07-11T04:35:00.846Z,14.50
2018-07-11T04:37:28.723Z,14.60
2018-07-11T04:39:56.568Z,14.70
2018-07-11T04:42:24.511Z,14.80
2018-07-11T04:44:52.369Z,14.90
2018-07-11T04:47:20.250Z,14.90
2018-07-11T04:49:48.078Z,15.00
2018-07-11T04:52:16.560Z,15.00
2018-07-11T04:54:44.433Z,15.10
2018-07-11T04:57:12.341Z,15.10
2018-07-11T04:59:40.246Z,15.20
2018-07-11T05:02:08.099Z,15.30
2018-07-11T05:04:35.941Z,15.30
2018-07-11T05:07:03.839Z,15.50
2018-07-11T05:09:31.701Z,15.50
2018-07-11T05:11:59.505Z,15.60
2018-07-11T05:14:27.385Z,15.60
2018-07-11T05:16:55.237Z,15.70
2018-07-11T05:19:23.123Z,15.70
2018-07-11T05:21:51.210Z,15.80
2018-07-11T05:24:19.104Z,15.90
2018-07-11T05:26:46.918Z,15.90
2018-07-11T05:29:14.809Z,16.00
2018-07-11T05:31:42.690Z,15.90
2018-07-11T05:34:10.518Z,15.90
2018-07-11T05:36:38.401Z,15.80
2018-07-11T05:39:06.329Z,15.80
2018-07-11T05:41:34.233Z,15.80
2018-07-11T05:44:02.052Z,15.80
2018-07-11T05:46:29.964Z,15.80
2018-07-11T05:48:57.791Z,15.80
2018-07-11T05:51:25.646Z,15.90
2018-07-11T05:53:53.550Z,16.00
2018-07-11T05:56:21.471Z,15.90
2018-07-11T05:58:49.327Z,16.00
2018-07-11T06:01:17.197Z,16.00
2018-07-11T06:03:45.076Z,16.10
2018-07-11T06:06:12.979Z,16.20
2018-07-11T06:08:40.794Z,16.40
2018-07-11T06:11:17.570Z,16.60
2018-07-11T06:13:45.471Z,16.80
2018-07-11T06:16:13.259Z,17.00
2018-07-11T06:18:41.142Z,17.30
2018-07-11T06:21:09.060Z,17.60
2018-07-11T06:23:36.948Z,17.90
2018-07-11T06:26:05.409Z,18.20
2018-07-11T06:28:33.270Z,18.50
2018-07-11T06:31:01.563Z,18.80
2018-07-11T06:33:29.489Z,19.00
2018-07-11T06:35:57.380Z,19.20
2018-07-11T06:38:25.334Z,19.40
2018-07-11T06:40:53.298Z,19.60
2018-07-11T06:43:21.186Z,19.70
2018-07-11T06:45:49.023Z,19.70
2018-07-11T06:48:16.902Z,19.80
2018-07-11T06:50:44.833Z,19.80
2018-07-11T06:53:12.710Z,19.90
2018-07-11T06:55:40.609Z,20.00
2018-07-11T06:58:08.572Z,20.30
2018-07-11T07:00:36.447Z,20.40
2018-07-11T07:03:04.362Z,20.60
2018-07-11T07:05:32.315Z,20.80
2018-07-11T07:08:00.243Z,21.00
2018-07-11T07:10:28.118Z,21.10
2018-07-11T07:12:56.150Z,21.70
2018-07-11T07:15:23.972Z,24.00
2018-07-11T07:17:51.898Z,25.90
2018-07-11T07:20:19.775Z,27.30
2018-07-11T07:22:47.708Z,28.00
2018-07-11T07:25:15.550Z,28.70
2018-07-11T07:27:43.330Z,28.60
2018-07-11T07:30:11.090Z,27.90
2018-07-11T07:32:38.906Z,27.40
2018-07-11T07:35:06.758Z,27.60
2018-07-11T07:37:34.633Z,28.20
2018-07-11T07:40:02.453Z,28.90
2018-07-11T07:42:30.222Z,28.80
2018-07-11T07:44:58.076Z,28.40
2018-07-11T07:47:31.768Z,28.00
2018-07-11T07:49:59.711Z,27.90
2018-07-11T07:52:27.654Z,27.80
2018-07-11T07:54:55.476Z,28.60
2018-07-11T07:57:23.241Z,29.10
2018-07-11T07:59:52.137Z,29.70
2018-07-11T08:02:20.315Z,30.40
2018-07-11T08:04:48.864Z,30.80
2018-07-11T08:07:16.748Z,30.50
2018-07-11T08:09:44.619Z,30.20
2018-07-11T08:12:12.639Z,30.50
2018-07-11T08:14:40.429Z,30.20
2018-07-11T08:17:08.255Z,29.30
2018-07-11T08:19:36.058Z,28.60
2018-07-11T08:22:21.554Z,27.70
2018-07-11T08:25:06.867Z,27.00
2018-07-11T08:27:59.934Z,26.50
2018-07-11T08:30:45.784Z,26.10
2018-07-11T08:37:41.240Z,26.10
2018-07-11T08:42:38.566Z,25.90
2018-07-11T08:45:35.898Z,26.20
2018-07-11T08:48:16.827Z,26.20
2018-07-11T08:55:10.592Z,27.20
2018-07-11T08:58:00.635Z,27.70
2018-07-11T09:00:48.523Z,28.20
2018-07-11T09:04:31.800Z,28.40
2018-07-11T09:08:19.902Z,28.70
2018-07-11T09:14:13.663Z,29.30
2018-07-11T09:17:00.281Z,30.60
2018-07-11T09:20:48.762Z,29.10
2018-07-11T09:23:33.473Z,28.80
2018-07-11T09:26:01.245Z,28.80
2018-07-11T09:28:29.088Z,28.80
2018-07-11T09:33:24.659Z,28.50
2018-07-11T09:35:52.507Z,28.50
2018-07-11T09:38:20.331Z,28.40
2018-07-11T09:40:48.444Z,28.20
2018-07-11T09:43:16.279Z,28.00
2018-07-11T09:45:44.035Z,28.20
2018-07-11T09:48:11.769Z,29.00
2018-07-11T09:50:39.586Z,29.60
2018-07-11T09:53:07.451Z,29.50
2018-07-11T09:55:35.320Z,29.20
2018-07-11T10:00:37.785Z,28.60
2018-07-11T10:03:06.315Z,28.30
2018-07-11T10:05:34.201Z,27.90
2018-07-11T10:08:05.806Z,27.60
2018-07-11T10:10:33.781Z,27.50
2018-07-11T10:13:01.679Z,27.30
2018-07-11T10:15:29.398Z,27.10
2018-07-11T10:17:57.333Z,26.70
2018-07-11T10:20:25.191Z,26.40
2018-07-11T10:22:53.067Z,26.20
2018-07-11T10:25:21.009Z,26.20
2018-07-11T10:28:05.039Z,26.20
2018-07-11T10:30:33.617Z,26.20
2018-07-11T10:33:01.423Z,26.40
2018-07-11T10:35:29.320Z,26.30
2018-07-11T10:37:57.421Z,26.30
2018-07-11T10:40:25.578Z,26.30
2018-07-11T10:42:53.375Z,26.50
2018-07-11T10:45:21.219Z,26.60
2018-07-11T10:47:49.067Z,26.80
2018-07-11T10:50:16.938Z,26.80
2018-07-11T10:52:44.729Z,26.90
2018-07-11T10:55:12.586Z,27.60
2018-07-11T10:57:40.453Z,28.40
2018-07-11T11:00:08.215Z,29.00
2018-07-11T11:02:36.104Z,29.50
2018-07-11T11:05:03.987Z,30.10
2018-07-11T11:07:31.873Z,30.30
2018-07-11T11:09:59.685Z,30.50
2018-07-11T11:12:27.502Z,30.70
2018-07-11T11:14:55.426Z,30.70
2018-07-11T11:17:23.309Z,30.30
2018-07-11T11:19:51.201Z,30.00
2018-07-11T11:22:19.113Z,30.00
2018-07-11T11:24:47.003Z,30.20
2018-07-11T11:29:42.925Z,30.30
2018-07-11T11:32:10.830Z,30.50
2018-07-11T11:34:38.679Z,30.50
2018-07-11T11:37:06.504Z,30.60
2018-07-11T11:39:34.395Z,30.70
2018-07-11T11:42:02.433Z,30.80
2018-07-11T11:44:30.228Z,30.80
2018-07-11T11:47:01.046Z,30.70
2018-07-11T11:49:29.547Z,30.50
2018-07-11T11:51:57.458Z,30.50
2018-07-11T11:54:25.375Z,30.40
2018-07-11T11:56:53.389Z,30.30
2018-07-11T11:59:21.298Z,30.70
2018-07-11T12:01:49.172Z,31.20
2018-07-11T12:04:17.241Z,31.70
2018-07-11T12:06:45.042Z,32.50
2018-07-11T12:09:12.858Z,33.20
2018-07-11T12:11:40.621Z,33.50
2018-07-11T12:14:08.484Z,33.50
2018-07-11T12:16:36.359Z,33.50
2018-07-11T12:19:04.271Z,33.00
2018-07-11T12:21:32.180Z,32.20
2018-07-11T12:24:00.059Z,31.80
2018-07-11T12:26:28.002Z,31.70
2018-07-11T12:28:55.934Z,32.00
2018-07-11T12:31:23.774Z,32.50
2018-07-11T12:33:51.687Z,33.00
2018-07-11T12:36:19.507Z,33.20
2018-07-11T12:38:52.701Z,32.90
2018-07-11T12:41:21.011Z,32.30
2018-07-11T12:43:48.889Z,31.60
2018-07-11T12:46:16.835Z,30.80
2018-07-11T12:48:50.421Z,30.00
2018-07-11T12:51:18.178Z,29.30
2018-07-11T12:53:45.998Z,28.80
2018-07-11T12:56:13.878Z,28.70
2018-07-11T12:58:41.662Z,28.70
2018-07-11T13:01:09.567Z,28.90
2018-07-11T13:03:37.352Z,29.00
2018-07-11T13:06:05.403Z,28.90
2018-07-11T13:08:33.167Z,28.80
2018-07-11T13:11:00.938Z,28.70
2018-07-11T13:13:28.751Z,28.50
2018-07-11T13:15:56.663Z,28.20
2018-07-11T13:18:24.467Z,28.10
2018-07-11T13:20:52.347Z,27.90
2018-07-11T13:23:20.243Z,27.70
2018-07-11T13:25:48.145Z,27.50
2018-07-11T13:28:15.977Z,27.20
2018-07-11T13:30:43.904Z,27.10
2018-07-11T13:33:11.686Z,27.00
2018-07-11T13:35:39.717Z,26.80
2018-07-11T13:38:10.677Z,26.70
2018-07-11T13:40:38.462Z,26.70
2018-07-11T13:43:06.683Z,26.80
2018-07-11T13:45:34.489Z,26.80
2018-07-11T13:48:03.081Z,26.80
2018-07-11T13:50:33.073Z,26.70
2018-07-11T13:53:01.242Z,26.50
2018-07-11T13:55:29.562Z,26.50
2018-07-11T13:57:58.792Z,26.40
2018-07-11T14:00:26.761Z,26.40
2018-07-11T14:02:54.645Z,26.30
2018-07-11T14:05:22.535Z,26.20
2018-07-11T14:07:50.356Z,26.20
2018-07-11T14:10:18.605Z,26.10
2018-07-11T14:12:46.461Z,26.10
2018-07-11T14:15:14.362Z,26.00
2018-07-11T14:17:42.411Z,26.00
2018-07-11T14:20:10.258Z,26.10
2018-07-11T14:22:38.714Z,26.00
2018-07-11T14:25:06.679Z,25.80
2018-07-11T14:27:43.897Z,25.60
2018-07-11T14:30:22.533Z,25.40
2018-07-11T14:32:51.757Z,24.60
2018-07-11T14:35:19.702Z,23.80
2018-07-11T14:37:48.613Z,23.00
2018-07-11T14:40:16.423Z,22.30
2018-07-11T14:42:52.550Z,21.60
2018-07-11T14:45:23.913Z,21.10
2018-07-11T14:48:06.352Z,20.60
2018-07-11T14:50:35.533Z,20.10
2018-07-11T14:53:15.974Z,19.70
2018-07-11T14:55:43.980Z,19.40
2018-07-11T14:58:11.889Z,19.10
2018-07-11T15:00:57.922Z,18.90
2018-07-11T15:03:33.018Z,18.70
2018-07-11T15:06:06.646Z,18.60
2018-07-11T15:08:34.648Z,18.50
2018-07-11T15:11:02.459Z,18.40
2018-07-11T15:13:47.383Z,18.20
2018-07-11T15:16:19.847Z,18.10
2018-07-11T15:18:50.554Z,18.00
2018-07-11T15:21:18.524Z,17.90
2018-07-11T15:23:52.286Z,17.80
2018-07-11T15:26:20.141Z,17.80
2018-07-11T15:28:48.066Z,17.60
2018-07-11T15:31:19.806Z,17.50
2018-07-11T15:34:00.374Z,17.40
2018-07-11T15:36:28.273Z,17.30
2018-07-11T15:38:56.187Z,17.20
2018-07-11T15:41:23.950Z,17.10
2018-07-11T15:43:52.282Z,17.00
2018-07-11T15:46:20.938Z,16.90
2018-07-11T15:48:49.248Z,16.80
2018-07-11T15:51:17.114Z,16.70
2018-07-11T15:53:45.022Z,16.60
2018-07-11T15:56:12.903Z,16.60
2018-07-11T15:58:44.568Z,16.60
2018-07-11T16:01:10.856Z,16.60
2018-07-11T16:03:46.338Z,16.60
2018-07-11T16:06:15.537Z,16.50
2018-07-11T16:08:48.935Z,16.60
2018-07-11T16:11:16.908Z,16.60
2018-07-11T16:13:44.812Z,16.50
2018-07-11T16:16:12.744Z,16.50
2018-07-11T16:18:40.623Z,16.40
2018-07-11T16:21:08.477Z,16.40
2018-07-11T16:23:36.517Z,16.40
2018-07-11T16:26:04.302Z,16.40
2018-07-11T16:28:32.465Z,16.30
2018-07-11T16:31:00.406Z,16.30
2018-07-11T16:33:28.210Z,16.40
2018-07-11T16:35:58.203Z,16.40
2018-07-11T16:41:26.403Z,16.50
2018-07-11T16:43:54.329Z,16.50
2018-07-11T16:46:34.603Z,16.50
2018-07-11T16:49:02.423Z,16.40
2018-07-11T16:51:30.451Z,16.40
2018-07-11T16:53:58.257Z,16.40
2018-07-11T16:56:26.063Z,16.50
2018-07-11T16:58:59.149Z,16.50
2018-07-11T17:01:34.849Z,16.50
2018-07-11T17:04:06.197Z,16.50
2018-07-11T17:06:35.473Z,16.50
2018-07-11T17:09:13.364Z,16.50
2018-07-11T17:11:41.423Z,16.50
2018-07-11T17:14:09.641Z,16.50
2018-07-11T17:16:43.054Z,16.60
2018-07-11T17:19:23.180Z,16.60
2018-07-11T17:21:51.106Z,16.70
2018-07-11T17:26:49.468Z,16.60
2018-07-11T17:29:24.823Z,16.60
2018-07-11T17:32:24.759Z,16.60
2018-07-11T17:34:52.647Z,16.60
2018-07-11T17:52:23.960Z,16.60
2018-07-11T17:55:09.690Z,16.60
2018-07-11T17:58:03.636Z,16.60
2018-07-11T18:00:43.233Z,16.50
2018-07-11T18:03:31.007Z,16.40
2018-07-11T18:06:04.417Z,16.40
2018-07-11T18:08:46.757Z,16.30
2018-07-11T18:11:15.212Z,16.30
2018-07-11T18:13:51.241Z,16.20
2018-07-11T18:16:57.994Z,16.20
2018-07-11T18:21:43.999Z,16.20
2018-07-11T18:26:35.881Z,16.10
2018-07-11T18:29:18.358Z,15.90
2018-07-11T18:34:01.054Z,15.70
2018-07-11T18:38:50.533Z,15.70
2018-07-11T18:41:35.733Z,15.60
2018-07-11T18:44:23.143Z,15.60
2018-07-11T18:49:13.645Z,15.50
2018-07-11T18:52:58.558Z,15.60
2018-07-11T18:55:34.329Z,15.50
2018-07-11T18:58:56.129Z,15.50
2018-07-11T19:01:35.766Z,15.50
2018-07-11T19:04:21.769Z,15.50
2018-07-11T19:07:00.346Z,15.50
2018-07-11T19:10:04.010Z,15.50
2018-07-11T19:12:44.254Z,15.40
2018-07-11T19:15:15.419Z,15.50
2018-07-11T19:18:13.807Z,15.40
2018-07-11T19:20:57.014Z,15.40
2018-07-11T19:26:19.898Z,15.30
2018-07-11T19:29:55.969Z,15.30
2018-07-11T19:36:17.522Z,15.30
2018-07-11T19:39:04.344Z,15.20
2018-07-11T19:41:49.468Z,14.90
2018-07-11T19:44:32.509Z,15.00
2018-07-11T19:47:29.597Z,15.00
2018-07-11T19:50:06.338Z,14.90
2018-07-11T19:52:50.602Z,14.90
2018-07-11T19:55:37.188Z,14.90
2018-07-11T20:00:32.905Z,14.80
2018-07-11T20:03:00.828Z,14.80
2018-07-11T20:05:28.729Z,14.80
2018-07-11T20:07:56.702Z,14.80
2018-07-11T20:10:24.574Z,14.80
2018-07-11T20:12:52.443Z,14.80
2018-07-11T20:15:20.425Z,14.80
2018-07-11T20:17:48.298Z,14.80
2018-07-11T20:20:16.293Z,14.80
2018-07-11T20:22:44.209Z,14.80
2018-07-11T20:25:12.109Z,14.90
2018-07-11T20:27:39.922Z,14.90
2018-07-11T20:30:07.897Z,14.90
2018-07-11T20:32:35.746Z,14.90
2018-07-11T20:35:03.657Z,14.90
2018-07-11T20:37:31.573Z,15.00
2018-07-11T20:39:59.425Z,15.00
2018-07-11T20:42:27.386Z,15.00
2018-07-11T20:44:55.201Z,15.00
2018-07-11T20:47:23.052Z,15.10
2018-07-11T20:49:50.953Z,15.10
2018-07-11T20:52:18.842Z,15.10
2018-07-11T20:54:46.702Z,15.10
2018-07-11T20:57:14.620Z,15.10
2018-07-11T21:03:07.890Z,15.00
2018-07-11T21:06:03.422Z,15.00
2018-07-11T21:09:03.318Z,15.00
2018-07-11T21:11:58.246Z,15.00
2018-07-11T21:25:27.170Z,15.00
2018-07-11T21:27:54.989Z,15.00
2018-07-11T21:30:22.889Z,14.80
2018-07-11T21:32:56.632Z,14.80
2018-07-11T21:35:32.373Z,14.90
2018-07-11T21:44:01.471Z,15.10
2018-07-11T21:46:29.399Z,15.10
2018-07-11T21:48:57.245Z,15.10
2018-07-11T21:51:41.510Z,15.20
2018-07-11T21:54:09.344Z,15.20
2018-07-11T21:56:50.825Z,15.20
2018-07-11T22:02:20.017Z,15.20
2018-07-11T22:04:47.935Z,15.20
2018-07-11T22:07:15.783Z,15.10
2018-07-11T22:09:43.671Z,15.20
2018-07-11T22:12:11.608Z,15.20
2018-07-11T22:14:39.479Z,15.10
2018-07-11T22:17:25.721Z,15.10
2018-07-11T22:22:58.921Z,15.10
2018-07-11T22:25:25.322Z,15.10
2018-07-11T22:27:51.781Z,15.00
2018-07-11T22:30:18.278Z,15.00
2018-07-11T22:32:44.717Z,14.90
2018-07-11T22:35:11.132Z,14.90
2018-07-11T22:37:37.563Z,14.80
2018-07-11T22:40:04.016Z,14.80
2018-07-11T22:42:30.478Z,14.70
2018-07-11T22:44:56.862Z,14.60
2018-07-11T22:47:23.271Z,14.50
2018-07-11T22:49:55.549Z,14.50
2018-07-11T22:52:21.985Z,14.40
2018-07-11T22:54:48.449Z,14.30
2018-07-11T22:57:14.893Z,14.30
2018-07-11T22:59:41.294Z,14.20
2018-07-11T23:02:07.740Z,14.20
2018-07-11T23:04:34.198Z,14.10
2018-07-11T23:07:00.917Z,14.10
2018-07-11T23:09:27.326Z,14.10
2018-07-11T23:11:53.773Z,14.10
2018-07-11T23:14:20.242Z,14.00
2018-07-11T23:16:47.448Z,14.00
2018-07-11T23:19:13.915Z,14.00
2018-07-11T23:21:40.782Z,13.90
2018-07-11T23:24:07.165Z,14.00
2018-07-11T23:26:33.651Z,13.90
2018-07-11T23:29:00.100Z,13.90
2018-07-11T23:31:26.541Z,13.80
2018-07-11T23:33:52.970Z,13.80
2018-07-11T23:36:19.366Z,13.80
2018-07-11T23:38:45.894Z,13.70
2018-07-11T23:41:12.250Z,13.70
2018-07-11T23:43:38.673Z,13.70
2018-07-11T23:46:05.103Z,13.70
2018-07-11T23:48:31.518Z,13.70
2018-07-11T23:50:57.919Z,13.70
2018-07-11T23:53:24.373Z,13.60
2018-07-11T23:55:50.870Z,13.60
2018-07-11T23:58:17.281Z,13.60
